Decoded Metar for KDEN (DENVER in CO, USA) (IATA:DEN) | Meteo·Mobile Aviation Weather
aviador You're here:

KDEN Decoded Metar

DENVER in CO, USA
Report Time2019-01-20 10:53:00
UTC Time2019-01-20 11:20:58
Flight Rules vfr VFR
Wind230° at 13 kt
W.Decomp.*RWY 25: 11.5 kt HW 6.1 kt LCW
RWY 26: 10.2 kt HW 8 kt LCW
RWY 17: 8.0 kt HW 10.2 kt RCW
RWY 16: 6.1 kt HW 11.5 kt RCW
W.Rank230° ranks 3
Current wind is above 230° avg. (8.0)
Visibility9999 m
Phenomena:N/A
Clouds:Few 100 Hf
Few 150 Hf
Broken 220 Hf
Expected CloudBase > 4,000 ft AGL from Temp-Dew spread
Ceiling22,000 ft
Temp04°C (ISA -0)
Dew Point-6°C (48% RH)
AAT-3.4°C
QNH1017 hPa
Density Alt5,272 ft
Elevation5,381 ft
Report Wrong Elevation
Raw Report
KDEN 201053Z 23013KT 10SM FEW100 FEW150 BKN220 04/M06 A3004 RMK
AO2 SLP156 T00391056=

Extra information for KDEN:More info

Metar Taf Metar & Taf Last 4 Metars F.Rules Stats Wind Profile Meteogram Temp Stats Airport Information Weather charts Add Link Nearby VenuesMetar ALERT Operation Metar Decoded Social comments

AIRNAV info for KDEN